Desoto — WDE3761 — position and weather

sailwx.info

Track history (hours):
 
Tides and Currents Weather Stations Pressure Air Temp Water Temp Dewpoint Dewpoint Depression Visibility Wind Speed Wind Dir Waves Ship Positions

Desoto

Owner: Tampa Pilots LLC, tampa, FL. More information available from US FCC via Universal Licensing System and Coast Guard Vessel Documentation Center.

Last reported at 2014-Dec-17 00:03 UTC. Time now 2014-Dec-20 05:12 UTC.
Position N 27°36' W 082°45'.

Length 18 m.

Type: Pilot. MMSI: 367343870.

Date/timePositionNaut miles runAvg speedWind from/ knotsBaromVisibWave heightAir tempDewpointWater temp
2014-Dec-17 00:03N 27°36' W 082°45'  
2014-Dec-08 17:28N 27°35' W 082°46'0 0.0
2014-Dec-08 16:31N 27°35' W 082°46'0 0.0
2014-Dec-08 15:33N 27°35' W 082°46'4 3.9
2014-Dec-08 14:33N 27°37' W 082°50'4 3.8
2014-Dec-08 13:32N 27°35' W 082°46'0 0.0
2014-Dec-08 12:32N 27°35' W 082°46'2 2.5
2014-Dec-08 11:33N 27°37' W 082°44'2 2.5
2014-Dec-08 10:33N 27°35' W 082°46'0 0.0
2014-Dec-08 09:33N 27°35' W 082°46'3 2.8
2014-Dec-08 08:34N 27°36' W 082°48'3 2.8
2014-Dec-08 07:33N 27°35' W 082°46'0 0.0
2014-Dec-08 06:33N 27°35' W 082°46'0 0.0
2014-Dec-08 05:33N 27°35' W 082°46'0 0.0
2014-Dec-08 04:33N 27°35' W 082°46'0 0.1
2014-Dec-08 03:33N 27°35' W 082°45'6 4.3
2014-Dec-08 02:04N 27°36' W 082°53'611.6
2014-Dec-08 01:31N 27°35' W 082°46'0 0.0
2014-Dec-08 00:31N 27°35' W 082°46'0 0.0
2014-Dec-07 23:31N 27°35' W 082°46'0 0.0
2014-Dec-07 22:31N 27°35' W 082°46'0 0.0
2014-Dec-07 21:19N 27°35' W 082°46'0 0.0
2014-Dec-07 18:31N 27°35' W 082°46'0 0.0
2014-Dec-07 17:31N 27°35' W 082°46'0 0.1
2014-Dec-07 16:33N 27°35' W 082°45'3 2.5
2014-Dec-07 15:18N 27°37' W 082°49'3 3.9
2014-Dec-07 14:31N 27°35' W 082°46'0 0.0
2014-Dec-07 13:33N 27°35' W 082°46'2 1.7
2014-Dec-07 12:33N 27°37' W 082°47'3 2.8
2014-Dec-07 11:33N 27°37' W 082°44'2 2.5
2014-Dec-07 10:33N 27°35' W 082°46'0 0.0
2014-Dec-07 09:30N 27°35' W 082°46'0 0.0
2014-Dec-07 08:34N 27°35' W 082°46'0 0.0
2014-Dec-07 07:34N 27°35' W 082°46'0 0.0
2014-Dec-07 06:33N 27°35' W 082°46'0 0.0
2014-Dec-07 05:34N 27°35' W 082°46'0 0.0
2014-Dec-07 04:33N 27°35' W 082°46'0 0.0
2014-Dec-07 03:12N 27°35' W 082°46'0 0.0
2014-Dec-07 02:30N 27°35' W 082°46'1 1.4
2014-Dec-07 01:33N 27°36' W 082°44'2 2.2
2014-Dec-07 00:31N 27°37' W 082°47'  
Track history (hours):
 
Tides and Currents Weather Stations Pressure Air Temp Water Temp Dewpoint Dewpoint Depression Visibility Wind Speed Wind Dir Waves Ship Positions

Desoto

Owner: Tampa Pilots LLC, tampa, FL. More information available from US FCC via Universal Licensing System and Coast Guard Vessel Documentation Center.

Last reported at 2014-Dec-17 00:03 UTC. Time now 2014-Dec-20 05:12 UTC.
Position N 27°36' W 082°45'.

Length 18 m.

Type: Pilot. MMSI: 367343870.

Date/timePositionNaut miles runAvg speedWind from/ knotsBaromVisibWave heightAir tempDewpointWater temp
2014-Dec-17 00:03N 27°36' W 082°45'  
2014-Dec-08 17:28N 27°35' W 082°46'0 0.0
2014-Dec-08 16:31N 27°35' W 082°46'0 0.0
2014-Dec-08 15:33N 27°35' W 082°46'4 3.9
2014-Dec-08 14:33N 27°37' W 082°50'4 3.8
2014-Dec-08 13:32N 27°35' W 082°46'0 0.0
2014-Dec-08 12:32N 27°35' W 082°46'2 2.5
2014-Dec-08 11:33N 27°37' W 082°44'2 2.5
2014-Dec-08 10:33N 27°35' W 082°46'0 0.0
2014-Dec-08 09:33N 27°35' W 082°46'3 2.8
2014-Dec-08 08:34N 27°36' W 082°48'3 2.8
2014-Dec-08 07:33N 27°35' W 082°46'0 0.0
2014-Dec-08 06:33N 27°35' W 082°46'0 0.0
2014-Dec-08 05:33N 27°35' W 082°46'0 0.0
2014-Dec-08 04:33N 27°35' W 082°46'0 0.1
2014-Dec-08 03:33N 27°35' W 082°45'6 4.3
2014-Dec-08 02:04N 27°36' W 082°53'611.6
2014-Dec-08 01:31N 27°35' W 082°46'0 0.0
2014-Dec-08 00:31N 27°35' W 082°46'0 0.0
2014-Dec-07 23:31N 27°35' W 082°46'0 0.0
2014-Dec-07 22:31N 27°35' W 082°46'0 0.0
2014-Dec-07 21:19N 27°35' W 082°46'0 0.0
2014-Dec-07 18:31N 27°35' W 082°46'0 0.0
2014-Dec-07 17:31N 27°35' W 082°46'0 0.1
2014-Dec-07 16:33N 27°35' W 082°45'3 2.5
2014-Dec-07 15:18N 27°37' W 082°49'3 3.9
2014-Dec-07 14:31N 27°35' W 082°46'0 0.0
2014-Dec-07 13:33N 27°35' W 082°46'2 1.7
2014-Dec-07 12:33N 27°37' W 082°47'3 2.8
2014-Dec-07 11:33N 27°37' W 082°44'2 2.5
2014-Dec-07 10:33N 27°35' W 082°46'0 0.0
2014-Dec-07 09:30N 27°35' W 082°46'0 0.0
2014-Dec-07 08:34N 27°35' W 082°46'0 0.0
2014-Dec-07 07:34N 27°35' W 082°46'0 0.0
2014-Dec-07 06:33N 27°35' W 082°46'0 0.0
2014-Dec-07 05:34N 27°35' W 082°46'0 0.0
2014-Dec-07 04:33N 27°35' W 082°46'0 0.0
2014-Dec-07 03:12N 27°35' W 082°46'0 0.0
2014-Dec-07 02:30N 27°35' W 082°46'1 1.4
2014-Dec-07 01:33N 27°36' W 082°44'2 2.2
2014-Dec-07 00:31N 27°37' W 082°47'  

Dump ship's entire track history